sensor_id;sensor_type;location;lat;lon;timestamp;P1;durP1;ratioP1;P2;durP2;ratioP2
10387;SDS011;5240;51.128;4.566;2023-07-08T00:00:18;7.40;;;5.00;;
10387;SDS011;5240;51.128;4.566;2023-07-08T00:02:46;6.10;;;4.75;;
10387;SDS011;5240;51.128;4.566;2023-07-08T00:05:16;6.63;;;4.80;;
10387;SDS011;5240;51.128;4.566;2023-07-08T00:07:44;6.75;;;4.65;;
10387;SDS011;5240;51.128;4.566;2023-07-08T00:10:12;6.15;;;4.88;;
10387;SDS011;5240;51.128;4.566;2023-07-08T00:12:41;8.65;;;4.90;;
10387;SDS011;5240;51.128;4.566;2023-07-08T00:15:10;5.95;;;4.78;;
10387;SDS011;5240;51.128;4.566;2023-07-08T00:17:37;7.60;;;4.43;;
10387;SDS011;5240;51.128;4.566;2023-07-08T00:20:11;7.38;;;4.88;;
10387;SDS011;5240;51.128;4.566;2023-07-08T00:22:43;7.53;;;5.00;;
10387;SDS011;5240;51.128;4.566;2023-07-08T00:25:12;6.80;;;5.10;;
10387;SDS011;5240;51.128;4.566;2023-07-08T00:27:40;7.55;;;4.47;;
10387;SDS011;5240;51.128;4.566;2023-07-08T00:30:13;5.60;;;4.85;;
10387;SDS011;5240;51.128;4.566;2023-07-08T00:32:45;5.82;;;4.70;;
10387;SDS011;5240;51.128;4.566;2023-07-08T00:35:12;8.45;;;4.88;;
10387;SDS011;5240;51.128;4.566;2023-07-08T00:37:40;8.73;;;4.90;;
10387;SDS011;5240;51.128;4.566;2023-07-08T00:40:17;5.70;;;4.78;;
10387;SDS011;5240;51.128;4.566;2023-07-08T00:42:45;8.00;;;4.60;;
10387;SDS011;5240;51.128;4.566;2023-07-08T00:45:20;7.68;;;4.60;;
10387;SDS011;5240;51.128;4.566;2023-07-08T00:47:56;9.63;;;4.93;;
10387;SDS011;5240;51.128;4.566;2023-07-08T00:50:30;8.55;;;4.47;;
10387;SDS011;5240;51.128;4.566;2023-07-08T00:56:00;6.57;;;4.90;;
10387;SDS011;5240;51.128;4.566;2023-07-08T00:58:31;10.15;;;4.97;;
10387;SDS011;5240;51.128;4.566;2023-07-08T01:01:00;5.40;;;4.25;;
10387;SDS011;5240;51.128;4.566;2023-07-08T01:03:31;7.10;;;4.85;;
10387;SDS011;5240;51.128;4.566;2023-07-08T01:06:00;8.93;;;5.30;;
10387;SDS011;5240;51.128;4.566;2023-07-08T01:08:27;13.85;;;4.88;;
10387;SDS011;5240;51.128;4.566;2023-07-08T01:10:57;5.88;;;4.95;;
10387;SDS011;5240;51.128;4.566;2023-07-08T01:13:27;7.15;;;4.65;;
10387;SDS011;5240;51.128;4.566;2023-07-08T01:15:56;6.55;;;5.00;;
10387;SDS011;5240;51.128;4.566;2023-07-08T01:18:24;7.82;;;4.93;;
10387;SDS011;5240;51.128;4.566;2023-07-08T01:20:52;5.85;;;4.60;;
10387;SDS011;5240;51.128;4.566;2023-07-08T01:23:21;7.68;;;4.82;;
10387;SDS011;5240;51.128;4.566;2023-07-08T01:25:49;5.18;;;4.50;;
10387;SDS011;5240;51.128;4.566;2023-07-08T01:28:16;7.60;;;4.53;;
10387;SDS011;5240;51.128;4.566;2023-07-08T01:30:44;7.28;;;4.80;;
10387;SDS011;5240;51.128;4.566;2023-07-08T01:33:14;8.10;;;4.72;;
10387;SDS011;5240;51.128;4.566;2023-07-08T01:35:44;7.13;;;5.00;;
10387;SDS011;5240;51.128;4.566;2023-07-08T01:38:14;7.35;;;5.20;;
10387;SDS011;5240;51.128;4.566;2023-07-08T01:40:49;7.35;;;4.72;;
10387;SDS011;5240;51.128;4.566;2023-07-08T01:43:18;10.18;;;4.95;;
10387;SDS011;5240;51.128;4.566;2023-07-08T01:45:45;7.97;;;5.15;;
10387;SDS011;5240;51.128;4.566;2023-07-08T01:48:14;6.97;;;4.97;;
10387;SDS011;5240;51.128;4.566;2023-07-08T01:50:44;8.15;;;4.60;;
10387;SDS011;5240;51.128;4.566;2023-07-08T01:53:16;6.18;;;5.00;;
10387;SDS011;5240;51.128;4.566;2023-07-08T01:55:46;5.75;;;4.63;;
10387;SDS011;5240;51.128;4.566;2023-07-08T01:58:14;6.85;;;4.80;;
10387;SDS011;5240;51.128;4.566;2023-07-08T02:00:41;6.25;;;4.63;;
10387;SDS011;5240;51.128;4.566;2023-07-08T02:03:08;5.70;;;4.50;;
10387;SDS011;5240;51.128;4.566;2023-07-08T02:05:36;6.22;;;4.75;;
10387;SDS011;5240;51.128;4.566;2023-07-08T02:08:03;7.53;;;4.68;;
10387;SDS011;5240;51.128;4.566;2023-07-08T02:10:30;5.70;;;4.80;;
10387;SDS011;5240;51.128;4.566;2023-07-08T02:12:57;6.78;;;4.20;;
10387;SDS011;5240;51.128;4.566;2023-07-08T02:15:26;5.35;;;4.70;;
10387;SDS011;5240;51.128;4.566;2023-07-08T02:17:53;5.13;;;4.45;;
10387;SDS011;5240;51.128;4.566;2023-07-08T02:20:20;6.75;;;4.75;;
10387;SDS011;5240;51.128;4.566;2023-07-08T02:22:47;6.63;;;4.13;;
10387;SDS011;5240;51.128;4.566;2023-07-08T02:25:14;6.93;;;4.82;;
10387;SDS011;5240;51.128;4.566;2023-07-08T02:27:42;7.90;;;4.72;;
10387;SDS011;5240;51.128;4.566;2023-07-08T02:30:09;6.10;;;4.57;;
10387;SDS011;5240;51.128;4.566;2023-07-08T02:32:37;9.18;;;5.15;;
10387;SDS011;5240;51.128;4.566;2023-07-08T02:35:05;6.50;;;4.70;;
10387;SDS011;5240;51.128;4.566;2023-07-08T02:37:33;5.60;;;4.78;;
10387;SDS011;5240;51.128;4.566;2023-07-08T02:40:00;8.00;;;5.00;;
10387;SDS011;5240;51.128;4.566;2023-07-08T02:42:27;5.43;;;4.78;;
10387;SDS011;5240;51.128;4.566;2023-07-08T02:44:54;6.20;;;4.88;;
10387;SDS011;5240;51.128;4.566;2023-07-08T02:47:21;8.30;;;5.00;;
10387;SDS011;5240;51.128;4.566;2023-07-08T02:49:49;6.32;;;4.65;;
10387;SDS011;5240;51.128;4.566;2023-07-08T02:52:17;6.10;;;4.75;;
10387;SDS011;5240;51.128;4.566;2023-07-08T02:54:44;8.18;;;4.65;;
10387;SDS011;5240;51.128;4.566;2023-07-08T02:57:11;6.28;;;4.38;;
10387;SDS011;5240;51.128;4.566;2023-07-08T02:59:38;7.05;;;5.18;;
10387;SDS011;5240;51.128;4.566;2023-07-08T03:02:05;6.00;;;4.93;;
10387;SDS011;5240;51.128;4.566;2023-07-08T03:04:32;9.10;;;4.57;;
10387;SDS011;5240;51.128;4.566;2023-07-08T03:07:06;5.53;;;4.10;;
10387;SDS011;5240;51.128;4.566;2023-07-08T03:09:37;6.13;;;4.60;;
10387;SDS011;5240;51.128;4.566;2023-07-08T03:12:04;6.20;;;4.90;;
10387;SDS011;5240;51.128;4.566;2023-07-08T03:14:32;6.72;;;4.63;;
10387;SDS011;5240;51.128;4.566;2023-07-08T03:16:59;5.03;;;4.40;;
10387;SDS011;5240;51.128;4.566;2023-07-08T03:19:26;5.18;;;4.65;;
10387;SDS011;5240;51.128;4.566;2023-07-08T03:21:53;5.20;;;4.70;;
10387;SDS011;5240;51.128;4.566;2023-07-08T03:24:22;6.75;;;4.80;;
10387;SDS011;5240;51.128;4.566;2023-07-08T03:26:49;5.32;;;4.80;;
10387;SDS011;5240;51.128;4.566;2023-07-08T03:29:19;6.32;;;4.88;;
10387;SDS011;5240;51.128;4.566;2023-07-08T03:31:46;6.13;;;4.97;;
10387;SDS011;5240;51.128;4.566;2023-07-08T03:34:14;5.70;;;4.60;;
10387;SDS011;5240;51.128;4.566;2023-07-08T03:36:42;7.97;;;5.22;;
10387;SDS011;5240;51.128;4.566;2023-07-08T03:39:14;5.35;;;4.85;;
10387;SDS011;5240;51.128;4.566;2023-07-08T03:41:43;8.77;;;5.32;;
10387;SDS011;5240;51.128;4.566;2023-07-08T03:44:10;6.93;;;5.13;;
10387;SDS011;5240;51.128;4.566;2023-07-08T03:46:38;8.20;;;5.05;;
10387;SDS011;5240;51.128;4.566;2023-07-08T03:49:05;7.78;;;5.40;;
10387;SDS011;5240;51.128;4.566;2023-07-08T03:51:33;9.57;;;5.47;;
10387;SDS011;5240;51.128;4.566;2023-07-08T03:54:02;5.93;;;4.97;;
10387;SDS011;5240;51.128;4.566;2023-07-08T03:56:30;7.18;;;5.25;;
10387;SDS011;5240;51.128;4.566;2023-07-08T03:58:58;6.18;;;5.05;;
10387;SDS011;5240;51.128;4.566;2023-07-08T04:01:25;6.43;;;5.20;;
10387;SDS011;5240;51.128;4.566;2023-07-08T04:03:53;6.60;;;5.10;;
10387;SDS011;5240;51.128;4.566;2023-07-08T04:06:22;8.05;;;5.03;;
10387;SDS011;5240;51.128;4.566;2023-07-08T04:08:50;5.97;;;4.80;;
10387;SDS011;5240;51.128;4.566;2023-07-08T04:11:18;6.35;;;4.93;;
10387;SDS011;5240;51.128;4.566;2023-07-08T04:13:47;6.13;;;4.53;;
10387;SDS011;5240;51.128;4.566;2023-07-08T04:16:16;6.30;;;5.20;;
10387;SDS011;5240;51.128;4.566;2023-07-08T04:18:45;11.45;;;5.50;;
10387;SDS011;5240;51.128;4.566;2023-07-08T04:21:12;8.10;;;5.28;;
10387;SDS011;5240;51.128;4.566;2023-07-08T04:23:39;8.95;;;5.35;;
10387;SDS011;5240;51.128;4.566;2023-07-08T04:26:07;7.28;;;4.70;;
10387;SDS011;5240;51.128;4.566;2023-07-08T04:28:36;8.63;;;5.47;;
10387;SDS011;5240;51.128;4.566;2023-07-08T04:31:03;6.95;;;4.88;;
10387;SDS011;5240;51.128;4.566;2023-07-08T04:33:32;6.72;;;5.35;;
10387;SDS011;5240;51.128;4.566;2023-07-08T04:35:59;6.53;;;5.28;;
10387;SDS011;5240;51.128;4.566;2023-07-08T04:38:26;7.55;;;5.30;;
10387;SDS011;5240;51.128;4.566;2023-07-08T04:40:53;7.93;;;5.00;;
10387;SDS011;5240;51.128;4.566;2023-07-08T04:43:22;5.55;;;4.93;;
10387;SDS011;5240;51.128;4.566;2023-07-08T04:45:54;6.70;;;5.50;;
10387;SDS011;5240;51.128;4.566;2023-07-08T04:48:22;6.78;;;5.30;;
10387;SDS011;5240;51.128;4.566;2023-07-08T04:50:52;8.60;;;5.72;;
10387;SDS011;5240;51.128;4.566;2023-07-08T04:53:19;11.52;;;5.53;;
10387;SDS011;5240;51.128;4.566;2023-07-08T04:55:48;10.02;;;5.63;;
10387;SDS011;5240;51.128;4.566;2023-07-08T04:58:17;7.55;;;5.47;;
10387;SDS011;5240;51.128;4.566;2023-07-08T05:00:44;5.80;;;5.30;;
10387;SDS011;5240;51.128;4.566;2023-07-08T05:03:11;8.65;;;5.57;;
10387;SDS011;5240;51.128;4.566;2023-07-08T05:05:38;8.48;;;6.30;;
10387;SDS011;5240;51.128;4.566;2023-07-08T05:08:07;7.63;;;5.60;;
10387;SDS011;5240;51.128;4.566;2023-07-08T05:10:34;6.68;;;5.78;;
10387;SDS011;5240;51.128;4.566;2023-07-08T05:13:01;8.18;;;6.05;;
10387;SDS011;5240;51.128;4.566;2023-07-08T05:15:28;8.38;;;5.80;;
10387;SDS011;5240;51.128;4.566;2023-07-08T05:17:55;6.70;;;5.70;;
10387;SDS011;5240;51.128;4.566;2023-07-08T05:20:22;9.18;;;5.65;;
10387;SDS011;5240;51.128;4.566;2023-07-08T05:22:49;6.80;;;6.00;;
10387;SDS011;5240;51.128;4.566;2023-07-08T05:25:18;9.77;;;6.03;;
10387;SDS011;5240;51.128;4.566;2023-07-08T05:27:46;6.53;;;5.15;;
10387;SDS011;5240;51.128;4.566;2023-07-08T05:30:14;7.65;;;5.40;;
10387;SDS011;5240;51.128;4.566;2023-07-08T05:32:42;7.90;;;5.78;;
10387;SDS011;5240;51.128;4.566;2023-07-08T05:35:10;7.93;;;5.93;;
10387;SDS011;5240;51.128;4.566;2023-07-08T05:37:37;8.57;;;5.70;;
10387;SDS011;5240;51.128;4.566;2023-07-08T05:40:05;8.52;;;5.65;;
10387;SDS011;5240;51.128;4.566;2023-07-08T05:42:35;9.30;;;5.45;;
10387;SDS011;5240;51.128;4.566;2023-07-08T05:45:02;8.77;;;6.18;;
10387;SDS011;5240;51.128;4.566;2023-07-08T05:47:31;7.35;;;6.03;;
10387;SDS011;5240;51.128;4.566;2023-07-08T05:49:58;7.45;;;5.90;;
10387;SDS011;5240;51.128;4.566;2023-07-08T05:52:26;7.05;;;6.32;;
10387;SDS011;5240;51.128;4.566;2023-07-08T05:54:53;6.95;;;6.07;;
10387;SDS011;5240;51.128;4.566;2023-07-08T05:57:20;10.30;;;6.30;;
10387;SDS011;5240;51.128;4.566;2023-07-08T05:59:49;8.20;;;6.03;;
10387;SDS011;5240;51.128;4.566;2023-07-08T06:02:18;8.75;;;6.18;;
10387;SDS011;5240;51.128;4.566;2023-07-08T06:04:48;10.63;;;5.97;;
10387;SDS011;5240;51.128;4.566;2023-07-08T06:07:15;11.30;;;6.78;;
10387;SDS011;5240;51.128;4.566;2023-07-08T06:09:42;15.50;;;6.72;;
10387;SDS011;5240;51.128;4.566;2023-07-08T06:12:10;9.48;;;6.72;;
10387;SDS011;5240;51.128;4.566;2023-07-08T06:14:37;7.82;;;6.22;;
10387;SDS011;5240;51.128;4.566;2023-07-08T06:17:06;7.35;;;6.60;;
10387;SDS011;5240;51.128;4.566;2023-07-08T06:19:33;9.45;;;6.50;;
10387;SDS011;5240;51.128;4.566;2023-07-08T06:22:00;10.50;;;6.45;;
10387;SDS011;5240;51.128;4.566;2023-07-08T06:24:27;12.18;;;6.78;;
10387;SDS011;5240;51.128;4.566;2023-07-08T06:26:54;10.65;;;6.57;;
10387;SDS011;5240;51.128;4.566;2023-07-08T06:29:21;13.90;;;7.43;;
10387;SDS011;5240;51.128;4.566;2023-07-08T06:31:48;9.30;;;6.68;;
10387;SDS011;5240;51.128;4.566;2023-07-08T06:34:17;8.30;;;6.95;;
10387;SDS011;5240;51.128;4.566;2023-07-08T06:36:44;11.75;;;7.28;;
10387;SDS011;5240;51.128;4.566;2023-07-08T06:39:11;13.00;;;7.80;;
10387;SDS011;5240;51.128;4.566;2023-07-08T06:41:38;10.07;;;7.22;;
10387;SDS011;5240;51.128;4.566;2023-07-08T06:44:07;11.70;;;7.00;;
10387;SDS011;5240;51.128;4.566;2023-07-08T06:46:34;9.50;;;7.43;;
10387;SDS011;5240;51.128;4.566;2023-07-08T06:49:01;9.38;;;7.68;;
10387;SDS011;5240;51.128;4.566;2023-07-08T06:51:29;9.98;;;7.10;;
10387;SDS011;5240;51.128;4.566;2023-07-08T06:53:56;8.60;;;6.15;;
10387;SDS011;5240;51.128;4.566;2023-07-08T06:56:23;10.95;;;6.97;;
10387;SDS011;5240;51.128;4.566;2023-07-08T06:58:50;12.82;;;6.88;;
10387;SDS011;5240;51.128;4.566;2023-07-08T07:01:17;11.20;;;7.57;;
10387;SDS011;5240;51.128;4.566;2023-07-08T07:03:45;8.98;;;6.85;;
10387;SDS011;5240;51.128;4.566;2023-07-08T07:06:12;12.27;;;6.97;;
10387;SDS011;5240;51.128;4.566;2023-07-08T07:08:40;11.35;;;7.05;;
10387;SDS011;5240;51.128;4.566;2023-07-08T07:11:07;161.85;;;17.40;;
10387;SDS011;5240;51.128;4.566;2023-07-08T07:13:34;13.63;;;6.90;;
10387;SDS011;5240;51.128;4.566;2023-07-08T07:16:01;10.38;;;7.43;;
10387;SDS011;5240;51.128;4.566;2023-07-08T07:18:28;12.88;;;7.57;;
10387;SDS011;5240;51.128;4.566;2023-07-08T07:20:55;8.30;;;7.03;;
10387;SDS011;5240;51.128;4.566;2023-07-08T07:23:24;9.25;;;6.72;;
10387;SDS011;5240;51.128;4.566;2023-07-08T07:25:52;9.65;;;6.63;;
10387;SDS011;5240;51.128;4.566;2023-07-08T07:28:19;9.45;;;6.53;;
10387;SDS011;5240;51.128;4.566;2023-07-08T07:30:46;11.32;;;6.60;;
10387;SDS011;5240;51.128;4.566;2023-07-08T07:33:21;13.32;;;7.40;;
10387;SDS011;5240;51.128;4.566;2023-07-08T07:35:48;11.05;;;6.95;;
10387;SDS011;5240;51.128;4.566;2023-07-08T07:38:15;8.93;;;6.30;;
10387;SDS011;5240;51.128;4.566;2023-07-08T07:40:42;11.23;;;6.90;;
10387;SDS011;5240;51.128;4.566;2023-07-08T07:43:11;9.52;;;7.50;;
10387;SDS011;5240;51.128;4.566;2023-07-08T07:45:38;10.02;;;7.28;;
10387;SDS011;5240;51.128;4.566;2023-07-08T07:48:05;8.70;;;7.10;;
10387;SDS011;5240;51.128;4.566;2023-07-08T07:50:32;7.35;;;6.65;;
10387;SDS011;5240;51.128;4.566;2023-07-08T07:52:59;12.32;;;7.75;;
10387;SDS011;5240;51.128;4.566;2023-07-08T07:55:26;9.60;;;7.50;;
10387;SDS011;5240;51.128;4.566;2023-07-08T07:57:53;11.38;;;7.40;;
10387;SDS011;5240;51.128;4.566;2023-07-08T08:00:22;16.40;;;7.40;;
10387;SDS011;5240;51.128;4.566;2023-07-08T08:02:49;9.77;;;7.25;;
10387;SDS011;5240;51.128;4.566;2023-07-08T08:05:16;12.77;;;7.07;;
10387;SDS011;5240;51.128;4.566;2023-07-08T08:07:44;8.77;;;6.57;;
10387;SDS011;5240;51.128;4.566;2023-07-08T08:10:13;9.68;;;6.95;;
10387;SDS011;5240;51.128;4.566;2023-07-08T08:12:40;9.48;;;6.75;;
10387;SDS011;5240;51.128;4.566;2023-07-08T08:15:07;8.02;;;6.82;;
10387;SDS011;5240;51.128;4.566;2023-07-08T08:17:36;12.05;;;6.88;;
10387;SDS011;5240;51.128;4.566;2023-07-08T08:20:04;7.63;;;6.45;;
10387;SDS011;5240;51.128;4.566;2023-07-08T08:22:32;10.65;;;7.22;;
10387;SDS011;5240;51.128;4.566;2023-07-08T08:24:59;9.13;;;7.10;;
10387;SDS011;5240;51.128;4.566;2023-07-08T08:27:27;11.60;;;7.00;;
10387;SDS011;5240;51.128;4.566;2023-07-08T08:29:54;8.15;;;6.85;;
10387;SDS011;5240;51.128;4.566;2023-07-08T08:32:21;10.27;;;6.75;;
10387;SDS011;5240;51.128;4.566;2023-07-08T08:34:49;11.85;;;7.10;;
10387;SDS011;5240;51.128;4.566;2023-07-08T08:37:16;9.60;;;7.60;;
10387;SDS011;5240;51.128;4.566;2023-07-08T08:39:43;10.13;;;7.18;;
10387;SDS011;5240;51.128;4.566;2023-07-08T08:42:11;9.70;;;7.38;;
10387;SDS011;5240;51.128;4.566;2023-07-08T08:44:52;12.85;;;7.28;;
10387;SDS011;5240;51.128;4.566;2023-07-08T08:47:25;9.35;;;7.18;;
10387;SDS011;5240;51.128;4.566;2023-07-08T08:50:00;9.95;;;7.40;;
10387;SDS011;5240;51.128;4.566;2023-07-08T08:52:35;12.88;;;7.28;;
10387;SDS011;5240;51.128;4.566;2023-07-08T08:55:07;11.15;;;7.20;;
10387;SDS011;5240;51.128;4.566;2023-07-08T08:57:37;8.45;;;7.22;;
10387;SDS011;5240;51.128;4.566;2023-07-08T09:00:10;12.50;;;7.13;;
10387;SDS011;5240;51.128;4.566;2023-07-08T09:02:46;8.57;;;7.22;;
10387;SDS011;5240;51.128;4.566;2023-07-08T09:05:21;8.23;;;7.22;;
10387;SDS011;5240;51.128;4.566;2023-07-08T09:07:53;14.07;;;7.32;;
10387;SDS011;5240;51.128;4.566;2023-07-08T09:10:31;10.57;;;7.45;;
10387;SDS011;5240;51.128;4.566;2023-07-08T09:13:06;8.52;;;6.78;;
10387;SDS011;5240;51.128;4.566;2023-07-08T09:15:37;8.40;;;7.57;;
10387;SDS011;5240;51.128;4.566;2023-07-08T09:18:10;11.88;;;7.60;;
10387;SDS011;5240;51.128;4.566;2023-07-08T09:20:44;9.30;;;7.40;;
10387;SDS011;5240;51.128;4.566;2023-07-08T09:23:15;11.48;;;7.60;;
10387;SDS011;5240;51.128;4.566;2023-07-08T09:25:47;9.80;;;7.50;;
10387;SDS011;5240;51.128;4.566;2023-07-08T09:28:19;11.13;;;8.00;;
10387;SDS011;5240;51.128;4.566;2023-07-08T09:30:46;13.75;;;7.85;;
10387;SDS011;5240;51.128;4.566;2023-07-08T09:33:14;13.60;;;8.35;;
10387;SDS011;5240;51.128;4.566;2023-07-08T09:35:43;10.48;;;7.65;;
10387;SDS011;5240;51.128;4.566;2023-07-08T09:38:13;8.77;;;7.97;;
10387;SDS011;5240;51.128;4.566;2023-07-08T09:40:44;11.80;;;8.20;;
10387;SDS011;5240;51.128;4.566;2023-07-08T09:43:19;11.13;;;7.35;;
10387;SDS011;5240;51.128;4.566;2023-07-08T09:45:51;9.13;;;7.90;;
10387;SDS011;5240;51.128;4.566;2023-07-08T09:48:23;10.73;;;7.85;;
10387;SDS011;5240;51.128;4.566;2023-07-08T09:50:52;8.65;;;7.75;;
10387;SDS011;5240;51.128;4.566;2023-07-08T09:53:20;8.63;;;7.45;;
10387;SDS011;5240;51.128;4.566;2023-07-08T09:55:47;8.98;;;8.07;;
10387;SDS011;5240;51.128;4.566;2023-07-08T09:58:18;10.77;;;7.88;;
10387;SDS011;5240;51.128;4.566;2023-07-08T10:00:51;10.20;;;8.00;;
10387;SDS011;5240;51.128;4.566;2023-07-08T10:03:22;9.80;;;8.07;;
10387;SDS011;5240;51.128;4.566;2023-07-08T10:05:53;9.63;;;7.97;;
10387;SDS011;5240;51.128;4.566;2023-07-08T10:08:23;10.57;;;8.18;;
10387;SDS011;5240;51.128;4.566;2023-07-08T10:10:55;8.85;;;7.95;;
10387;SDS011;5240;51.128;4.566;2023-07-08T10:13:28;8.52;;;7.40;;
10387;SDS011;5240;51.128;4.566;2023-07-08T10:16:09;11.02;;;7.63;;
10387;SDS011;5240;51.128;4.566;2023-07-08T10:18:40;9.73;;;8.65;;
10387;SDS011;5240;51.128;4.566;2023-07-08T10:21:11;8.82;;;7.93;;
10387;SDS011;5240;51.128;4.566;2023-07-08T10:23:48;8.90;;;8.00;;
10387;SDS011;5240;51.128;4.566;2023-07-08T10:26:23;10.20;;;7.88;;
10387;SDS011;5240;51.128;4.566;2023-07-08T10:28:56;8.30;;;7.25;;
10387;SDS011;5240;51.128;4.566;2023-07-08T10:31:36;9.93;;;7.63;;
10387;SDS011;5240;51.128;4.566;2023-07-08T10:34:24;11.40;;;7.65;;
10387;SDS011;5240;51.128;4.566;2023-07-08T10:37:02;9.90;;;7.55;;
10387;SDS011;5240;51.128;4.566;2023-07-08T10:39:41;10.05;;;8.20;;
10387;SDS011;5240;51.128;4.566;2023-07-08T10:42:21;10.10;;;8.05;;
10387;SDS011;5240;51.128;4.566;2023-07-08T10:45:06;9.15;;;7.80;;
10387;SDS011;5240;51.128;4.566;2023-07-08T10:47:42;10.50;;;8.38;;
10387;SDS011;5240;51.128;4.566;2023-07-08T10:50:24;8.18;;;7.35;;
10387;SDS011;5240;51.128;4.566;2023-07-08T10:53:07;10.07;;;7.45;;
10387;SDS011;5240;51.128;4.566;2023-07-08T10:55:49;11.38;;;7.90;;
10387;SDS011;5240;51.128;4.566;2023-07-08T10:58:25;9.52;;;7.75;;
10387;SDS011;5240;51.128;4.566;2023-07-08T11:01:24;8.20;;;7.40;;
10387;SDS011;5240;51.128;4.566;2023-07-08T11:04:05;11.63;;;8.20;;
10387;SDS011;5240;51.128;4.566;2023-07-08T11:06:44;9.98;;;7.90;;
10387;SDS011;5240;51.128;4.566;2023-07-08T11:09:17;9.43;;;7.65;;
10387;SDS011;5240;51.128;4.566;2023-07-08T11:11:51;11.52;;;8.63;;
10387;SDS011;5240;51.128;4.566;2023-07-08T11:14:24;10.88;;;8.32;;
10387;SDS011;5240;51.128;4.566;2023-07-08T11:16:58;8.82;;;7.57;;
10387;SDS011;5240;51.128;4.566;2023-07-08T11:19:35;8.27;;;7.47;;
10387;SDS011;5240;51.128;4.566;2023-07-08T11:22:08;8.93;;;7.95;;
10387;SDS011;5240;51.128;4.566;2023-07-08T11:24:41;9.30;;;7.40;;
10387;SDS011;5240;51.128;4.566;2023-07-08T11:27:13;8.77;;;7.97;;
10387;SDS011;5240;51.128;4.566;2023-07-08T11:29:45;11.45;;;8.07;;
10387;SDS011;5240;51.128;4.566;2023-07-08T11:32:15;9.88;;;8.35;;
10387;SDS011;5240;51.128;4.566;2023-07-08T11:34:47;8.73;;;7.93;;
10387;SDS011;5240;51.128;4.566;2023-07-08T11:37:16;10.25;;;8.18;;
10387;SDS011;5240;51.128;4.566;2023-07-08T11:39:52;8.77;;;7.90;;
10387;SDS011;5240;51.128;4.566;2023-07-08T11:42:21;9.13;;;7.80;;
10387;SDS011;5240;51.128;4.566;2023-07-08T11:44:52;9.50;;;8.60;;
10387;SDS011;5240;51.128;4.566;2023-07-08T11:47:24;10.30;;;8.32;;
10387;SDS011;5240;51.128;4.566;2023-07-08T11:49:59;9.70;;;8.27;;
10387;SDS011;5240;51.128;4.566;2023-07-08T11:52:27;8.85;;;7.80;;
10387;SDS011;5240;51.128;4.566;2023-07-08T11:55:03;8.75;;;7.85;;
10387;SDS011;5240;51.128;4.566;2023-07-08T11:57:47;10.88;;;7.75;;
10387;SDS011;5240;51.128;4.566;2023-07-08T12:00:22;10.25;;;8.43;;
10387;SDS011;5240;51.128;4.566;2023-07-08T12:02:54;8.43;;;7.65;;
10387;SDS011;5240;51.128;4.566;2023-07-08T12:05:29;9.73;;;8.20;;
10387;SDS011;5240;51.128;4.566;2023-07-08T12:07:58;8.98;;;8.07;;
10387;SDS011;5240;51.128;4.566;2023-07-08T12:10:28;9.30;;;8.25;;
10387;SDS011;5240;51.128;4.566;2023-07-08T12:12:59;10.23;;;8.15;;
10387;SDS011;5240;51.128;4.566;2023-07-08T12:15:26;10.75;;;7.80;;
10387;SDS011;5240;51.128;4.566;2023-07-08T12:17:56;11.13;;;8.50;;
10387;SDS011;5240;51.128;4.566;2023-07-08T12:20:27;8.60;;;7.80;;
10387;SDS011;5240;51.128;4.566;2023-07-08T12:22:56;12.48;;;8.40;;
10387;SDS011;5240;51.128;4.566;2023-07-08T12:25:25;9.95;;;7.88;;
10387;SDS011;5240;51.128;4.566;2023-07-08T12:27:55;8.85;;;8.02;;
10387;SDS011;5240;51.128;4.566;2023-07-08T12:30:23;9.98;;;8.00;;
10387;SDS011;5240;51.128;4.566;2023-07-08T12:32:54;8.93;;;8.07;;
10387;SDS011;5240;51.128;4.566;2023-07-08T12:35:25;12.20;;;7.80;;
10387;SDS011;5240;51.128;4.566;2023-07-08T12:37:54;11.00;;;7.78;;
10387;SDS011;5240;51.128;4.566;2023-07-08T12:40:25;10.80;;;7.50;;
10387;SDS011;5240;51.128;4.566;2023-07-08T12:42:54;8.68;;;7.70;;
10387;SDS011;5240;51.128;4.566;2023-07-08T12:45:23;9.65;;;8.00;;
10387;SDS011;5240;51.128;4.566;2023-07-08T12:47:51;7.93;;;7.13;;
10387;SDS011;5240;51.128;4.566;2023-07-08T12:50:18;8.82;;;7.75;;
10387;SDS011;5240;51.128;4.566;2023-07-08T12:52:45;10.23;;;7.85;;
10387;SDS011;5240;51.128;4.566;2023-07-08T12:55:14;10.52;;;7.95;;
10387;SDS011;5240;51.128;4.566;2023-07-08T12:57:43;8.63;;;7.03;;
10387;SDS011;5240;51.128;4.566;2023-07-08T13:00:14;10.98;;;7.53;;
10387;SDS011;5240;51.128;4.566;2023-07-08T13:02:46;10.27;;;8.60;;
10387;SDS011;5240;51.128;4.566;2023-07-08T13:05:14;8.45;;;7.72;;
10387;SDS011;5240;51.128;4.566;2023-07-08T13:07:43;9.77;;;8.30;;
10387;SDS011;5240;51.128;4.566;2023-07-08T13:10:16;8.85;;;7.95;;
10387;SDS011;5240;51.128;4.566;2023-07-08T13:12:47;9.57;;;7.60;;
10387;SDS011;5240;51.128;4.566;2023-07-08T13:15:19;8.45;;;7.30;;
10387;SDS011;5240;51.128;4.566;2023-07-08T13:17:49;10.27;;;7.75;;
10387;SDS011;5240;51.128;4.566;2023-07-08T13:20:17;8.00;;;7.20;;
10387;SDS011;5240;51.128;4.566;2023-07-08T13:22:46;10.73;;;7.50;;
10387;SDS011;5240;51.128;4.566;2023-07-08T13:25:28;9.65;;;8.00;;
10387;SDS011;5240;51.128;4.566;2023-07-08T13:27:58;9.07;;;7.05;;
10387;SDS011;5240;51.128;4.566;2023-07-08T13:30:27;8.02;;;7.22;;
10387;SDS011;5240;51.128;4.566;2023-07-08T13:32:56;7.97;;;6.95;;
10387;SDS011;5240;51.128;4.566;2023-07-08T13:35:25;8.40;;;6.68;;
10387;SDS011;5240;51.128;4.566;2023-07-08T13:37:55;12.07;;;6.65;;
10387;SDS011;5240;51.128;4.566;2023-07-08T13:40:22;14.32;;;5.75;;
10387;SDS011;5240;51.128;4.566;2023-07-08T13:42:53;15.30;;;5.22;;
10387;SDS011;5240;51.128;4.566;2023-07-08T13:45:25;13.13;;;4.75;;
10387;SDS011;5240;51.128;4.566;2023-07-08T13:47:58;9.40;;;4.70;;
10387;SDS011;5240;51.128;4.566;2023-07-08T13:50:39;7.68;;;4.30;;
10387;SDS011;5240;51.128;4.566;2023-07-08T13:53:18;8.32;;;4.47;;
10387;SDS011;5240;51.128;4.566;2023-07-08T13:55:58;8.35;;;4.10;;
10387;SDS011;5240;51.128;4.566;2023-07-08T13:58:27;5.85;;;4.43;;
10387;SDS011;5240;51.128;4.566;2023-07-08T14:00:57;5.65;;;4.18;;
10387;SDS011;5240;51.128;4.566;2023-07-08T14:03:25;7.72;;;4.97;;
10387;SDS011;5240;51.128;4.566;2023-07-08T14:05:52;8.98;;;4.72;;
10387;SDS011;5240;51.128;4.566;2023-07-08T14:08:19;8.05;;;4.50;;
10387;SDS011;5240;51.128;4.566;2023-07-08T14:10:47;8.40;;;4.53;;
10387;SDS011;5240;51.128;4.566;2023-07-08T14:13:14;7.47;;;4.85;;
10387;SDS011;5240;51.128;4.566;2023-07-08T14:15:42;7.72;;;4.95;;
10387;SDS011;5240;51.128;4.566;2023-07-08T14:18:12;8.18;;;4.90;;
10387;SDS011;5240;51.128;4.566;2023-07-08T14:20:40;6.97;;;5.13;;
10387;SDS011;5240;51.128;4.566;2023-07-08T14:23:08;10.40;;;5.03;;
10387;SDS011;5240;51.128;4.566;2023-07-08T14:25:37;5.97;;;4.38;;
10387;SDS011;5240;51.128;4.566;2023-07-08T14:28:05;9.52;;;5.13;;
10387;SDS011;5240;51.128;4.566;2023-07-08T14:30:32;7.75;;;4.57;;
10387;SDS011;5240;51.128;4.566;2023-07-08T14:33:01;8.38;;;4.80;;
10387;SDS011;5240;51.128;4.566;2023-07-08T14:35:29;8.77;;;4.80;;
10387;SDS011;5240;51.128;4.566;2023-07-08T14:37:56;10.13;;;4.95;;
10387;SDS011;5240;51.128;4.566;2023-07-08T14:40:25;9.52;;;4.82;;
10387;SDS011;5240;51.128;4.566;2023-07-08T14:42:55;7.97;;;5.00;;
10387;SDS011;5240;51.128;4.566;2023-07-08T14:45:25;8.13;;;4.78;;
10387;SDS011;5240;51.128;4.566;2023-07-08T14:47:55;8.27;;;4.65;;
10387;SDS011;5240;51.128;4.566;2023-07-08T14:50:22;11.10;;;4.80;;
10387;SDS011;5240;51.128;4.566;2023-07-08T14:52:52;6.97;;;4.60;;
10387;SDS011;5240;51.128;4.566;2023-07-08T14:55:19;9.52;;;4.63;;
10387;SDS011;5240;51.128;4.566;2023-07-08T14:57:46;8.98;;;5.57;;
10387;SDS011;5240;51.128;4.566;2023-07-08T15:00:15;10.85;;;5.10;;
10387;SDS011;5240;51.128;4.566;2023-07-08T15:02:43;5.47;;;4.60;;
10387;SDS011;5240;51.128;4.566;2023-07-08T15:05:16;5.90;;;4.63;;
10387;SDS011;5240;51.128;4.566;2023-07-08T15:07:47;6.85;;;3.78;;
10387;SDS011;5240;51.128;4.566;2023-07-08T15:10:17;6.80;;;4.13;;
10387;SDS011;5240;51.128;4.566;2023-07-08T15:12:44;8.63;;;4.25;;
10387;SDS011;5240;51.128;4.566;2023-07-08T15:15:16;8.27;;;4.03;;